createdAt,value
2023-01-30T00:01:03.827Z,2.61
2023-01-30T00:03:30.429Z,2.63
2023-01-30T00:05:56.987Z,2.65
2023-01-30T00:08:24.216Z,2.72
2023-01-30T00:10:50.706Z,2.78
2023-01-30T00:13:17.289Z,2.81
2023-01-30T00:15:43.951Z,2.76
2023-01-30T00:18:10.603Z,2.77
2023-01-30T00:20:37.468Z,2.76
2023-01-30T00:23:04.383Z,2.79
2023-01-30T00:25:31.714Z,2.84
2023-01-30T00:28:02.239Z,2.88
2023-01-30T00:30:29.416Z,2.91
2023-01-30T00:32:59.737Z,2.93
2023-01-30T00:35:28.693Z,2.89
2023-01-30T00:37:59.280Z,2.95
2023-01-30T00:40:27.262Z,2.96
2023-01-30T00:43:12.917Z,2.95
2023-01-30T00:46:01.424Z,2.93
2023-01-30T00:48:28.315Z,2.97
2023-01-30T00:50:54.770Z,3.02
2023-01-30T00:53:21.276Z,3.05
2023-01-30T00:55:47.759Z,3.04
2023-01-30T00:58:14.196Z,3.08
2023-01-30T01:00:40.698Z,3.07
2023-01-30T01:03:07.579Z,3.10
2023-01-30T01:05:34.491Z,3.09
2023-01-30T01:08:01.304Z,3.11
2023-01-30T01:10:27.785Z,3.17
2023-01-30T01:12:54.253Z,3.18
2023-01-30T01:15:22.375Z,3.17
2023-01-30T01:17:49.774Z,3.19
2023-01-30T01:20:17.740Z,3.24
2023-01-30T01:22:44.647Z,3.26
2023-01-30T01:25:11.578Z,3.26
2023-01-30T01:27:38.593Z,3.31
2023-01-30T01:30:06.194Z,3.31
2023-01-30T01:32:32.760Z,3.32
2023-01-30T01:34:59.228Z,3.31
2023-01-30T01:37:25.691Z,3.21
2023-01-30T01:40:10.992Z,3.19
2023-01-30T01:42:38.760Z,3.29
2023-01-30T01:45:15.368Z,3.33
2023-01-30T01:47:59.208Z,3.40
2023-01-30T01:50:38.513Z,3.43
2023-01-30T01:53:05.564Z,3.47
2023-01-30T01:55:32.583Z,3.45
2023-01-30T01:58:08.700Z,3.46
2023-01-30T02:00:35.153Z,3.51
2023-01-30T02:03:19.706Z,3.52
2023-01-30T02:05:50.788Z,3.53
2023-01-30T02:08:21.971Z,3.54
2023-01-30T02:11:03.171Z,3.57
2023-01-30T02:13:30.327Z,3.56
2023-01-30T02:16:00.184Z,3.58
2023-01-30T02:18:29.473Z,3.54
2023-01-30T02:21:05.157Z,3.60
2023-01-30T02:23:56.572Z,3.58
2023-01-30T02:27:00.727Z,3.64
2023-01-30T02:30:05.172Z,3.66
2023-01-30T02:32:59.502Z,3.67
2023-01-30T02:35:38.488Z,3.66
2023-01-30T02:38:20.233Z,3.71
2023-01-30T02:40:56.004Z,3.75
2023-01-30T02:43:40.087Z,3.73
2023-01-30T02:46:20.336Z,3.70
2023-01-30T02:49:07.850Z,3.76
2023-01-30T02:51:37.757Z,3.75
2023-01-30T02:54:11.181Z,3.78
2023-01-30T02:56:57.451Z,3.79
2023-01-30T02:59:44.644Z,3.80
2023-01-30T03:02:16.532Z,3.82
2023-01-30T03:04:58.465Z,3.86
2023-01-30T03:08:04.237Z,3.89
2023-01-30T03:10:39.572Z,3.89
2023-01-30T03:13:38.428Z,3.94
2023-01-30T03:16:38.908Z,3.98
2023-01-30T03:19:09.817Z,3.99
2023-01-30T03:21:42.065Z,4.05
2023-01-30T03:24:08.699Z,4.03
2023-01-30T03:26:39.929Z,4.06
2023-01-30T03:29:06.429Z,3.97
2023-01-30T03:31:33.213Z,4.04
2023-01-30T03:33:59.724Z,4.05
2023-01-30T03:36:26.226Z,4.05
2023-01-30T03:38:52.808Z,4.06
2023-01-30T03:41:19.395Z,4.04
2023-01-30T03:43:45.775Z,4.04
2023-01-30T03:46:12.246Z,4.08
2023-01-30T03:48:38.760Z,4.08
2023-01-30T03:51:05.406Z,4.20
2023-01-30T03:53:31.830Z,4.15
2023-01-30T03:55:58.237Z,4.12
2023-01-30T03:58:24.783Z,4.18
2023-01-30T04:00:51.302Z,4.18
2023-01-30T04:03:17.951Z,4.16
2023-01-30T04:05:44.369Z,4.17
2023-01-30T04:08:11.099Z,4.20
2023-01-30T04:10:37.487Z,4.21
2023-01-30T04:13:03.864Z,4.17
2023-01-30T04:15:30.342Z,4.20
2023-01-30T04:17:56.789Z,4.18
2023-01-30T04:20:23.395Z,4.20
2023-01-30T04:22:49.788Z,4.17
2023-01-30T04:25:17.009Z,4.17
2023-01-30T04:27:44.504Z,4.21
2023-01-30T04:30:11.238Z,4.23
2023-01-30T04:32:37.652Z,4.22
2023-01-30T04:35:04.475Z,4.24
2023-01-30T04:37:31.139Z,4.25
2023-01-30T04:39:57.588Z,4.32
2023-01-30T04:42:24.035Z,4.35
2023-01-30T04:44:50.467Z,4.35
2023-01-30T04:47:17.560Z,4.35
2023-01-30T04:49:44.176Z,4.32
2023-01-30T04:52:10.590Z,4.33
2023-01-30T04:54:37.053Z,4.33
2023-01-30T04:57:03.598Z,4.37
2023-01-30T04:59:30.051Z,4.33
2023-01-30T05:01:56.609Z,4.36
2023-01-30T05:04:23.161Z,4.36
2023-01-30T05:06:49.608Z,4.32
2023-01-30T05:09:16.215Z,4.36
2023-01-30T05:11:42.683Z,4.37
2023-01-30T05:14:09.165Z,4.40
2023-01-30T05:16:35.672Z,4.41
2023-01-30T05:19:02.114Z,4.39
2023-01-30T05:21:28.753Z,4.38
2023-01-30T05:23:56.438Z,4.38
2023-01-30T05:26:24.134Z,4.38
2023-01-30T05:28:55.627Z,4.40
2023-01-30T05:31:22.237Z,4.39
2023-01-30T05:33:50.315Z,4.41
2023-01-30T05:36:18.907Z,4.39
2023-01-30T05:38:45.613Z,4.37
2023-01-30T05:41:14.341Z,4.35
2023-01-30T05:43:41.488Z,4.35
2023-01-30T05:46:09.806Z,4.41
2023-01-30T05:48:36.255Z,4.44
2023-01-30T05:51:02.679Z,4.47
2023-01-30T05:53:32.352Z,4.53
2023-01-30T05:56:01.305Z,4.51
2023-01-30T05:58:28.667Z,4.56
2023-01-30T06:01:00.539Z,4.52
2023-01-30T06:03:27.103Z,4.58
2023-01-30T06:05:53.585Z,4.57
2023-01-30T06:08:20.396Z,4.62
2023-01-30T06:10:46.814Z,4.64
2023-01-30T06:13:13.259Z,4.64
2023-01-30T06:15:39.907Z,4.61
2023-01-30T06:18:06.692Z,4.65
2023-01-30T06:20:33.204Z,4.65
2023-01-30T06:22:59.613Z,4.73
2023-01-30T06:25:27.328Z,4.73
2023-01-30T06:27:53.739Z,4.75
2023-01-30T06:30:20.281Z,4.76
2023-01-30T06:32:50.494Z,4.70
2023-01-30T06:35:17.377Z,4.80
2023-01-30T06:37:45.497Z,4.79
2023-01-30T06:40:13.118Z,4.76
2023-01-30T06:42:44.428Z,4.80
2023-01-30T06:45:11.288Z,4.88
2023-01-30T06:47:48.721Z,4.85
2023-01-30T06:50:17.814Z,4.90
2023-01-30T06:52:49.279Z,4.88
2023-01-30T06:55:17.931Z,4.88
2023-01-30T06:57:45.643Z,4.94
2023-01-30T07:00:15.945Z,4.92
2023-01-30T07:02:42.379Z,4.96
2023-01-30T07:05:10.211Z,4.97
2023-01-30T07:07:37.569Z,5.01
2023-01-30T07:10:08.823Z,5.01
2023-01-30T07:12:36.351Z,5.06
2023-01-30T07:15:04.682Z,5.04
2023-01-30T07:17:31.159Z,5.04
2023-01-30T07:19:57.633Z,5.07
2023-01-30T07:22:24.138Z,5.09
2023-01-30T07:24:50.585Z,5.10
2023-01-30T07:27:17.390Z,5.08
2023-01-30T07:29:43.908Z,5.13
2023-01-30T07:32:19.876Z,5.17
2023-01-30T07:34:47.602Z,5.19
2023-01-30T07:37:14.847Z,5.16
2023-01-30T07:39:41.678Z,5.19
2023-01-30T07:42:08.317Z,5.19
2023-01-30T07:44:34.823Z,5.24
2023-01-30T07:47:01.379Z,5.24
2023-01-30T07:49:27.923Z,5.25
2023-01-30T07:51:54.462Z,5.25
2023-01-30T07:54:21.034Z,5.35
2023-01-30T07:56:47.414Z,5.32
2023-01-30T07:59:13.881Z,5.36
2023-01-30T08:01:40.335Z,5.41
2023-01-30T08:04:06.804Z,5.40
2023-01-30T08:06:38.809Z,5.43
2023-01-30T08:09:06.736Z,5.44
2023-01-30T08:11:33.789Z,5.42
2023-01-30T08:14:00.427Z,5.46
2023-01-30T08:16:27.309Z,5.48
2023-01-30T08:18:53.929Z,5.53
2023-01-30T08:21:20.597Z,5.49
2023-01-30T08:23:47.119Z,5.49
2023-01-30T08:26:13.736Z,5.45
2023-01-30T08:28:40.789Z,5.48
2023-01-30T08:31:12.388Z,5.52
2023-01-30T08:33:39.254Z,5.56
2023-01-30T08:36:06.010Z,5.66
2023-01-30T08:38:32.484Z,5.68
2023-01-30T08:41:00.897Z,5.71
2023-01-30T08:43:27.416Z,5.76
2023-01-30T08:45:54.728Z,5.78
2023-01-30T08:48:21.213Z,5.79
2023-01-30T08:50:47.712Z,5.89
2023-01-30T08:53:14.334Z,5.87
2023-01-30T08:55:40.792Z,5.89
2023-01-30T08:58:07.280Z,5.90
2023-01-30T09:00:33.810Z,5.92
2023-01-30T09:03:01.763Z,5.93
2023-01-30T09:05:29.958Z,6.01
2023-01-30T09:07:56.496Z,5.98
2023-01-30T09:10:24.315Z,6.00
2023-01-30T09:12:50.817Z,6.01
2023-01-30T09:15:17.320Z,5.98
2023-01-30T09:17:44.787Z,5.97
2023-01-30T09:20:12.420Z,5.96
2023-01-30T09:22:39.174Z,6.00
2023-01-30T09:25:06.795Z,6.02
2023-01-30T09:27:33.691Z,6.03
2023-01-30T09:30:00.199Z,6.11
2023-01-30T09:32:26.632Z,6.15
2023-01-30T09:34:53.441Z,6.13
2023-01-30T09:37:19.848Z,6.12
2023-01-30T09:39:46.466Z,6.14
2023-01-30T09:42:58.804Z,6.15
2023-01-30T09:45:59.158Z,6.15
2023-01-30T09:48:35.383Z,6.16
2023-01-30T09:51:22.743Z,6.17
2023-01-30T09:54:14.138Z,6.18
2023-01-30T09:56:41.216Z,6.25
2023-01-30T09:59:19.454Z,6.24
2023-01-30T10:01:48.624Z,6.24
2023-01-30T10:04:18.049Z,6.21
2023-01-30T10:07:04.744Z,6.22
2023-01-30T10:09:56.696Z,6.28
2023-01-30T10:12:50.527Z,6.26
2023-01-30T10:15:42.724Z,6.32
2023-01-30T10:18:39.581Z,6.33
2023-01-30T10:21:26.962Z,6.28
2023-01-30T10:24:05.701Z,6.24
2023-01-30T10:26:32.575Z,6.27
2023-01-30T10:29:31.414Z,6.21
2023-01-30T10:32:10.145Z,6.20
2023-01-30T10:34:43.388Z,6.26
2023-01-30T10:37:18.507Z,6.23
2023-01-30T10:40:14.290Z,6.22
2023-01-30T10:42:49.714Z,6.27
2023-01-30T10:45:21.171Z,6.26
2023-01-30T10:48:31.434Z,6.25
2023-01-30T10:51:29.531Z,6.22
2023-01-30T10:54:05.187Z,6.26
2023-01-30T10:56:47.381Z,6.27
2023-01-30T10:59:50.185Z,6.27
2023-01-30T11:02:16.659Z,6.37
2023-01-30T11:04:56.431Z,6.37
2023-01-30T11:07:22.906Z,6.43
2023-01-30T11:09:49.730Z,6.42
2023-01-30T11:12:16.190Z,6.37
2023-01-30T11:14:56.632Z,6.37
2023-01-30T11:17:34.073Z,6.33
2023-01-30T11:20:22.623Z,6.34
2023-01-30T11:23:06.961Z,6.40
2023-01-30T11:25:49.219Z,6.43
2023-01-30T11:28:22.337Z,6.52
2023-01-30T11:30:54.686Z,6.54
2023-01-30T11:33:23.837Z,6.46
2023-01-30T11:35:55.776Z,6.47
2023-01-30T11:38:25.507Z,6.53
2023-01-30T11:41:04.561Z,6.56
2023-01-30T11:43:33.865Z,6.53
2023-01-30T11:46:00.814Z,6.51
2023-01-30T11:48:33.934Z,6.50
2023-01-30T11:51:17.991Z,6.47
2023-01-30T11:53:49.134Z,6.44
2023-01-30T11:56:30.849Z,6.47
2023-01-30T11:58:59.957Z,6.55
2023-01-30T12:01:30.501Z,6.52
2023-01-30T12:03:58.715Z,6.55
2023-01-30T12:06:34.921Z,6.57
2023-01-30T12:09:01.954Z,6.58
2023-01-30T12:11:31.499Z,6.63
2023-01-30T12:14:27.512Z,6.60
2023-01-30T12:17:02.437Z,6.62
2023-01-30T12:19:39.983Z,6.56
2023-01-30T12:22:24.527Z,6.65
2023-01-30T12:25:25.779Z,6.65
2023-01-30T12:28:10.624Z,6.72
2023-01-30T12:30:43.824Z,6.75
2023-01-30T12:33:15.374Z,6.74
2023-01-30T12:36:02.099Z,6.80
2023-01-30T12:38:58.141Z,6.88
2023-01-30T12:41:52.519Z,6.95
2023-01-30T12:44:45.404Z,6.99
2023-01-30T12:47:14.795Z,6.94
2023-01-30T12:49:54.388Z,6.97
2023-01-30T12:52:41.668Z,6.97
2023-01-30T12:55:32.417Z,6.95
2023-01-30T12:58:36.945Z,6.93
2023-01-30T13:01:16.534Z,6.96
2023-01-30T13:03:50.883Z,6.94
2023-01-30T13:06:52.670Z,6.92
2023-01-30T13:09:53.109Z,7.00
2023-01-30T13:12:32.510Z,7.01
2023-01-30T13:15:08.420Z,7.07
2023-01-30T13:17:40.918Z,7.11
2023-01-30T13:20:13.771Z,7.09
2023-01-30T13:22:49.839Z,7.05
2023-01-30T13:25:53.986Z,7.06
2023-01-30T13:28:26.111Z,7.09
2023-01-30T13:30:55.000Z,7.07
2023-01-30T13:33:28.660Z,7.08
2023-01-30T13:36:03.992Z,7.10
2023-01-30T13:38:34.731Z,7.08
2023-01-30T13:41:03.618Z,7.13
2023-01-30T13:43:41.943Z,7.08
2023-01-30T13:46:12.146Z,7.12
2023-01-30T13:49:06.083Z,7.15
2023-01-30T13:52:02.887Z,7.24
2023-01-30T13:54:47.874Z,7.23
2023-01-30T13:57:24.464Z,7.22
2023-01-30T14:00:07.367Z,7.22
2023-01-30T14:02:33.854Z,7.16
2023-01-30T14:05:03.817Z,7.14
2023-01-30T14:07:41.773Z,7.21
2023-01-30T14:10:20.949Z,7.19
2023-01-30T14:12:54.910Z,7.18
2023-01-30T14:15:25.629Z,7.19
2023-01-30T14:17:58.457Z,7.13
2023-01-30T14:20:27.219Z,7.14
2023-01-30T14:22:58.096Z,7.15
2023-01-30T14:25:30.477Z,7.14
2023-01-30T14:27:59.951Z,7.19
2023-01-30T14:30:47.684Z,7.15
2023-01-30T14:33:23.615Z,7.11
2023-01-30T14:36:02.323Z,7.11
2023-01-30T14:38:36.724Z,7.22
2023-01-30T14:41:03.236Z,7.24
2023-01-30T14:43:41.939Z,7.19
2023-01-30T14:46:17.433Z,7.17
2023-01-30T14:49:16.167Z,7.14
2023-01-30T14:51:45.822Z,7.12
2023-01-30T14:54:12.575Z,7.04
2023-01-30T14:56:59.916Z,7.00
2023-01-30T14:59:59.354Z,6.96
2023-01-30T15:02:44.311Z,6.91
2023-01-30T15:05:15.488Z,6.97
2023-01-30T15:08:02.807Z,6.96
2023-01-30T15:10:44.934Z,6.91
2023-01-30T15:13:30.250Z,6.96
2023-01-30T15:16:15.643Z,7.00
2023-01-30T15:18:48.356Z,7.00
2023-01-30T15:21:29.198Z,7.03
2023-01-30T15:24:30.922Z,6.99
2023-01-30T15:27:27.247Z,6.99
2023-01-30T15:30:32.605Z,6.93
2023-01-30T15:33:29.750Z,6.88
2023-01-30T15:35:57.949Z,6.83
2023-01-30T15:38:28.473Z,6.77
2023-01-30T15:41:06.112Z,6.80
2023-01-30T15:43:48.725Z,6.76
2023-01-30T15:46:30.373Z,6.76
2023-01-30T15:49:07.883Z,6.76
2023-01-30T15:51:34.970Z,6.74
2023-01-30T15:54:08.782Z,6.73
2023-01-30T15:56:35.665Z,6.66
2023-01-30T15:59:02.863Z,6.58
2023-01-30T16:01:30.534Z,6.53
2023-01-30T16:04:00.189Z,6.55
2023-01-30T16:06:32.805Z,6.56
2023-01-30T16:09:18.354Z,6.54
2023-01-30T16:11:44.819Z,6.61
2023-01-30T16:14:13.837Z,6.60
2023-01-30T16:16:57.843Z,6.59
2023-01-30T16:19:37.450Z,6.53
2023-01-30T16:22:07.082Z,6.51
2023-01-30T16:24:36.680Z,6.54
2023-01-30T16:27:07.465Z,6.53
2023-01-30T16:29:46.528Z,6.57
2023-01-30T16:32:17.176Z,6.56
2023-01-30T16:34:43.678Z,6.56
2023-01-30T16:37:16.281Z,6.53
2023-01-30T16:39:43.167Z,6.51
2023-01-30T16:42:24.227Z,6.57
2023-01-30T16:44:50.657Z,6.54
2023-01-30T16:47:27.211Z,6.55
2023-01-30T16:49:55.492Z,6.53
2023-01-30T16:52:36.852Z,6.50
2023-01-30T16:55:06.636Z,6.45
2023-01-30T16:57:43.606Z,6.37
2023-01-30T17:00:21.618Z,6.33
2023-01-30T17:02:56.353Z,6.42
2023-01-30T17:05:28.523Z,6.39
2023-01-30T17:07:56.248Z,6.36
2023-01-30T17:10:28.845Z,6.34
2023-01-30T17:12:56.416Z,6.40
2023-01-30T17:15:22.838Z,6.43
2023-01-30T17:17:49.423Z,6.43
2023-01-30T17:20:16.566Z,6.43
2023-01-30T17:22:45.891Z,6.46
2023-01-30T17:25:31.628Z,6.44
2023-01-30T17:27:58.962Z,6.45
2023-01-30T17:30:25.433Z,6.43
2023-01-30T17:32:51.926Z,6.40
2023-01-30T17:35:18.975Z,6.36
2023-01-30T17:37:53.192Z,6.33
2023-01-30T17:40:37.700Z,6.36
2023-01-30T17:43:04.954Z,6.34
2023-01-30T17:45:31.668Z,6.36
2023-01-30T17:47:58.253Z,6.35
2023-01-30T17:50:24.996Z,6.26
2023-01-30T17:52:51.528Z,6.17
2023-01-30T17:55:18.330Z,6.13
2023-01-30T17:57:47.901Z,6.15
2023-01-30T18:00:17.005Z,6.17
2023-01-30T18:02:43.897Z,6.17
2023-01-30T18:05:11.127Z,6.16
2023-01-30T18:07:38.269Z,6.12
2023-01-30T18:10:05.172Z,6.09
2023-01-30T18:12:31.789Z,6.06
2023-01-30T18:14:58.649Z,6.09
2023-01-30T18:17:28.501Z,6.10
2023-01-30T18:19:55.628Z,6.09
2023-01-30T18:22:22.496Z,6.06
2023-01-30T18:24:49.082Z,6.02
2023-01-30T18:27:15.566Z,5.99
2023-01-30T18:29:41.966Z,5.97
2023-01-30T18:32:08.446Z,5.92
2023-01-30T18:34:35.354Z,5.88
2023-01-30T18:37:01.826Z,5.86
2023-01-30T18:39:28.346Z,5.90
2023-01-30T18:41:54.872Z,5.89
2023-01-30T18:44:21.423Z,5.91
2023-01-30T18:46:50.086Z,5.91
2023-01-30T18:49:16.497Z,5.93
2023-01-30T18:51:42.931Z,5.91
2023-01-30T18:54:09.404Z,5.87
2023-01-30T18:56:36.383Z,5.78
2023-01-30T18:59:05.480Z,5.73
2023-01-30T19:01:35.580Z,5.77
2023-01-30T19:04:03.764Z,5.75
2023-01-30T19:06:30.483Z,5.72
2023-01-30T19:08:57.999Z,5.72
2023-01-30T19:11:43.189Z,5.72
2023-01-30T19:14:10.132Z,5.72
2023-01-30T19:16:38.443Z,5.74
2023-01-30T19:19:06.126Z,5.72
2023-01-30T19:21:32.978Z,5.68
2023-01-30T19:24:02.502Z,5.64
2023-01-30T19:26:29.603Z,5.63
2023-01-30T19:28:56.109Z,5.55
2023-01-30T19:31:22.721Z,5.55
2023-01-30T19:34:00.585Z,5.49
2023-01-30T19:36:30.251Z,5.51
2023-01-30T19:38:59.422Z,5.47
2023-01-30T19:41:29.374Z,5.42
2023-01-30T19:43:58.126Z,5.34
2023-01-30T19:46:25.581Z,5.27
2023-01-30T19:48:52.314Z,5.24
2023-01-30T19:51:24.541Z,5.21
2023-01-30T19:53:54.044Z,5.16
2023-01-30T19:56:22.412Z,5.15
2023-01-30T19:58:52.323Z,5.12
2023-01-30T20:01:21.420Z,5.13
2023-01-30T20:03:48.466Z,5.10
2023-01-30T20:06:20.955Z,5.10
2023-01-30T20:08:50.176Z,5.06
2023-01-30T20:11:21.803Z,5.07
2023-01-30T20:13:49.432Z,5.08
2023-01-30T20:16:20.798Z,5.06
2023-01-30T20:18:49.340Z,5.09
2023-01-30T20:21:18.691Z,5.06
2023-01-30T20:23:46.270Z,5.04
2023-01-30T20:26:17.947Z,5.01
2023-01-30T20:28:44.676Z,4.96
2023-01-30T20:31:23.459Z,4.92
2023-01-30T20:33:50.568Z,4.87
2023-01-30T20:36:19.522Z,4.89
2023-01-30T20:38:47.883Z,4.87
2023-01-30T20:41:20.210Z,4.90
2023-01-30T20:43:51.667Z,4.90
2023-01-30T20:46:21.091Z,4.86
2023-01-30T20:48:48.291Z,4.83
2023-01-30T20:51:17.659Z,4.83
2023-01-30T20:53:51.610Z,4.79
2023-01-30T20:56:19.277Z,4.77
2023-01-30T20:58:45.988Z,4.79
2023-01-30T21:01:18.467Z,4.80
2023-01-30T21:03:46.310Z,4.77
2023-01-30T21:06:12.920Z,4.70
2023-01-30T21:08:40.966Z,4.64
2023-01-30T21:11:10.512Z,4.65
2023-01-30T21:13:38.215Z,4.66
2023-01-30T21:16:11.083Z,4.62
2023-01-30T21:18:39.692Z,4.61
2023-01-30T21:21:08.185Z,4.57
2023-01-30T21:23:35.588Z,4.56
2023-01-30T21:26:07.968Z,4.55
2023-01-30T21:28:36.881Z,4.51
2023-01-30T21:31:18.436Z,4.51
2023-01-30T21:33:45.047Z,4.50
2023-01-30T21:36:12.578Z,4.47
2023-01-30T21:38:57.768Z,4.46
2023-01-30T21:41:46.042Z,4.43
2023-01-30T21:44:13.781Z,4.44
2023-01-30T21:46:46.133Z,4.41
2023-01-30T21:49:13.212Z,4.41
2023-01-30T21:51:44.828Z,4.39
2023-01-30T21:54:11.840Z,4.37
2023-01-30T21:56:39.021Z,4.36
2023-01-30T21:59:06.227Z,4.32
2023-01-30T22:01:34.317Z,4.30
2023-01-30T22:04:03.615Z,4.30
2023-01-30T22:06:30.501Z,4.29
2023-01-30T22:08:59.674Z,4.29
2023-01-30T22:11:27.648Z,4.30
2023-01-30T22:13:54.843Z,4.28
2023-01-30T22:16:27.722Z,4.25
2023-01-30T22:18:56.526Z,4.27
2023-01-30T22:21:25.797Z,4.28
2023-01-30T22:23:53.594Z,4.33
2023-01-30T22:26:22.236Z,4.36
2023-01-30T22:28:48.695Z,4.37
2023-01-30T22:31:18.842Z,4.37
2023-01-30T22:33:51.535Z,4.39
2023-01-30T22:36:18.604Z,4.38
2023-01-30T22:38:46.627Z,4.39
2023-01-30T22:41:17.089Z,4.43
2023-01-30T22:43:45.549Z,4.44
2023-01-30T22:46:13.804Z,4.42
2023-01-30T22:48:41.123Z,4.43
2023-01-30T22:51:13.548Z,4.45
2023-01-30T22:53:42.924Z,4.46
2023-01-30T22:56:11.868Z,4.45
2023-01-30T22:58:39.387Z,4.44
2023-01-30T23:01:07.575Z,4.44
2023-01-30T23:03:34.836Z,4.43
2023-01-30T23:06:04.268Z,4.40
2023-01-30T23:08:33.356Z,4.39
2023-01-30T23:11:10.729Z,4.39
2023-01-30T23:13:38.160Z,4.36
2023-01-30T23:16:06.483Z,4.34
2023-01-30T23:18:52.225Z,4.35
2023-01-30T23:21:18.851Z,4.33
2023-01-30T23:23:46.025Z,4.32
2023-01-30T23:26:13.676Z,4.30
2023-01-30T23:28:40.409Z,4.29
2023-01-30T23:31:09.171Z,4.29
2023-01-30T23:33:35.848Z,4.29
2023-01-30T23:36:07.237Z,4.29
2023-01-30T23:38:34.035Z,4.28
2023-01-30T23:41:12.347Z,4.29
2023-01-30T23:43:40.940Z,4.29
2023-01-30T23:46:30.124Z,4.26
2023-01-30T23:49:02.231Z,4.24
2023-01-30T23:51:30.742Z,4.24
2023-01-30T23:53:57.984Z,4.23
2023-01-30T23:56:27.904Z,4.23
2023-01-30T23:58:54.688Z,4.24
